Terminal Aerodrome Forecast
Issued by NWS

Home | Current Version | Previous Version | Text Only | Print | Product List | Glossary On
Versions: 1 2 3 4 5 6 7 8 9 10 11 12 13 14 15 16 17 18
000
FTAK31 PAFA 280520
TAFAFA
TAF
PAFA 280520Z 2806/2912 VRB05KT P6SM -SHRA BKN045 BKN070
     FM280700 VRB05KT P6SM VCSH SCT045 BKN070
     FM280900 VRB05KT P6SM FEW050 BKN070
     FM281200 VRB05KT 2SM BR BKN005
     FM281600 VRB05KT P6SM SCT005 SCT070
     FM281700 VRB05KT P6SM SCT070=

USA.gov is the U.S. government's official web portal to all federal, state and local government web resources and services.